You are not logged in, Click here to log in
機場資訊:LKPR Welcome to Taiwan Airways 台灣虛擬航空
ICAO: LKPR Country: 捷克共和國首都及最大城市布拉格市區西側約10公里
Latitude: 50.1008 Longitude: 14.26
Total Arrivals: 6 Total Departures: 5
Latest Arrival: LH1402 (EDDF-LKPR)ALAN. LIU Latest Departure: FS68 (LKPR-LTFM)ALAN. LIU
Scenery:
METAR : LKPR 141800Z VRB02KT CAVOK 14/11 Q1015 NOSIG

布拉格瓦茨拉夫·哈維爾國際機場